メインページ
METAR-TAF:

METAR-TAF

空港 :

エルサルバドル, エルサルバドル

エルサルバドル国際空港

緯度: 13-26N, 経度: 089-03W, 海抜: 25m

現時点の気象観測

当レポートは15分前の10:50(UTC)に作成
の風 3kt
気温 24°C
湿度 100%
気圧 1011 hPa
視程10km以上
高度6000ftの雲はほとんどない

METAR: MSLP 201050Z 08003KT 9999 FEW060 24/24 Q1011 A2986 NOSIG

時間: 05:05 (11:05 UTC)

予報

当レポートは13時間5分前の22:00(UTC)に作成
予報は20日の 00時(UTC)から 20日の 24時(UTC)まで有効
変向風 3kt
視程10km以上
高度2000ftの雲は散在している
高度3300ftの雲はほとんどない, 積乱雲.
高度7000ftの雲は散在している
20日の 03時(UTC)から 20日の 07時(UTC)まで一時的に
視程: 5000m
激しい雷雨, 雨
20日の 0900時(UTC)から
東/北東の風 3kt
視程: 8000m
高度2000ftの雲は散在している
高度4700ftの雲は散在している
20日の 1400時(UTC)から
東/北東の風 3kt
視程10km以上
高度2000ftの雲は散在している
20日の 1800時(UTC)から
南/南西の風 10kt
視程10km以上
高度2000ftの千切れ雲あり
高度3300ftの雲はほとんどない, 積乱雲.

TAF: MSLP 192200Z 2000/2024 VRB03KT 9999 SCT020 FEW033CB SCT070 TX30/2018Z TN22/2010Z TEMPO 2003/2007 5000 TSRA FM200900 06003KT 8000 RA SCT020 SCT047 FM201400 06003KT 9999 SCT020 FM201800 20010KT 9999 BKN020 FEW033CB

4,000以上の空港の気象観測と天気予報(METAR報とTAF報)

利用可能な観測所は地図上に黄色い丸と赤い丸で示す。

丸の上にカーソルを重ねると観測所名を参照できる。

次にクリックすると気象観測と天気予報を参照できる。

マップの切り替え:黒色「×」印の緑ボタンをクリックして拡大、「-」印の緑ボタンをクリックして縮小、緑色の三角印をクリックして隣りの地図に切り替え


METAR-TAF: